createdAt,value
2018-03-08T05:13:39.875Z,18.20
2018-03-08T05:16:06.160Z,18.20
2018-03-08T05:18:32.397Z,18.20
2018-03-08T05:20:58.612Z,18.10
2018-03-08T05:23:24.831Z,18.20
2018-03-08T05:25:51.051Z,18.20
2018-03-08T05:28:17.303Z,18.20
2018-03-08T05:30:43.528Z,18.10
2018-03-08T05:33:09.764Z,18.20
2018-03-08T05:35:36.731Z,18.20
2018-03-08T05:38:02.970Z,18.10
2018-03-08T05:40:29.229Z,18.20
2018-03-08T05:42:56.233Z,18.10
2018-03-08T05:45:22.481Z,18.10
2018-03-08T05:47:49.455Z,18.20
2018-03-08T05:50:16.444Z,18.10
2018-03-08T05:52:42.713Z,18.10
2018-03-08T05:55:08.943Z,18.10
2018-03-08T05:57:35.182Z,18.10
2018-03-08T06:00:02.204Z,18.00
2018-03-08T06:02:29.090Z,18.00
2018-03-08T06:04:55.391Z,18.10
2018-03-08T06:07:21.652Z,18.00
2018-03-08T06:09:48.971Z,17.90
2018-03-08T06:12:15.214Z,17.70
2018-03-08T06:14:41.447Z,17.70
2018-03-08T06:17:07.731Z,17.80
2018-03-08T06:19:33.995Z,17.90
2018-03-08T06:22:00.219Z,17.90
2018-03-08T06:24:27.214Z,17.90
2018-03-08T06:26:53.933Z,17.90
2018-03-08T06:29:20.210Z,17.90
2018-03-08T06:31:46.426Z,17.90
2018-03-08T06:34:12.651Z,17.90
2018-03-08T06:36:38.878Z,17.90
2018-03-08T06:39:05.890Z,17.90
2018-03-08T06:41:32.883Z,17.90
2018-03-08T06:43:59.139Z,17.90
2018-03-08T06:46:25.368Z,18.00
2018-03-08T06:48:51.597Z,18.00
2018-03-08T06:51:17.850Z,18.00
2018-03-08T06:53:44.114Z,18.00
2018-03-08T06:56:10.353Z,18.00
2018-03-08T06:58:36.595Z,18.00
2018-03-08T07:01:03.074Z,18.00
2018-03-08T07:03:29.310Z,18.00
2018-03-08T07:05:55.607Z,18.00
2018-03-08T07:08:21.862Z,18.00
2018-03-08T07:10:48.111Z,18.00
2018-03-08T07:13:14.934Z,18.00
2018-03-08T07:15:41.317Z,18.00
2018-03-08T07:18:07.486Z,18.00
2018-03-08T07:20:33.754Z,18.00
2018-03-08T07:22:59.990Z,18.00
2018-03-08T07:25:26.970Z,18.00
2018-03-08T07:27:53.190Z,18.00
2018-03-08T07:30:19.607Z,18.00
2018-03-08T07:32:46.630Z,18.00
2018-03-08T07:35:12.872Z,18.00
2018-03-08T07:37:39.112Z,18.00
2018-03-08T07:40:06.073Z,18.00
2018-03-08T07:42:32.336Z,18.00
2018-03-08T07:44:58.636Z,18.00
2018-03-08T07:47:24.881Z,18.10
2018-03-08T07:49:51.123Z,18.00
2018-03-08T07:52:18.127Z,18.10
2018-03-08T07:54:44.383Z,18.00
2018-03-08T07:57:10.600Z,18.10
2018-03-08T07:59:36.842Z,18.10
2018-03-08T08:02:03.092Z,18.10
2018-03-08T08:04:30.101Z,18.10
2018-03-08T08:06:56.323Z,18.10
2018-03-08T08:09:22.968Z,18.10
2018-03-08T08:11:49.383Z,18.10
2018-03-08T08:14:16.678Z,18.10
2018-03-08T08:16:42.932Z,18.10
2018-03-08T08:19:09.214Z,18.10
2018-03-08T08:21:35.455Z,18.10
2018-03-08T08:24:01.677Z,18.10
2018-03-08T08:26:27.915Z,18.10
2018-03-08T08:28:54.908Z,18.10
2018-03-08T08:31:21.166Z,18.10
2018-03-08T08:33:47.414Z,18.10
2018-03-08T08:36:13.635Z,18.10
2018-03-08T08:38:39.863Z,18.10
2018-03-08T08:41:06.139Z,18.10
2018-03-08T08:43:32.363Z,18.10
2018-03-08T08:45:58.606Z,18.10
2018-03-08T08:48:25.604Z,18.10
2018-03-08T08:50:51.819Z,18.10
2018-03-08T08:53:18.093Z,18.10
2018-03-08T08:55:44.343Z,18.10
2018-03-08T08:58:10.579Z,18.10
2018-03-08T09:00:36.799Z,18.10
2018-03-08T09:03:03.036Z,18.10
2018-03-08T09:05:29.304Z,18.10
2018-03-08T09:07:55.887Z,18.10
2018-03-08T09:10:22.690Z,18.10
2018-03-08T09:12:49.676Z,18.10
2018-03-08T09:15:15.919Z,18.10
2018-03-08T09:17:42.224Z,18.10
2018-03-08T09:20:08.711Z,18.10
2018-03-08T09:22:34.958Z,18.10
2018-03-08T09:25:01.767Z,18.10
2018-03-08T09:27:28.009Z,18.10
2018-03-08T09:29:54.272Z,18.10
2018-03-08T09:32:20.513Z,18.10
2018-03-08T09:34:46.771Z,18.10
2018-03-08T09:37:13.775Z,18.10
2018-03-08T09:39:40.021Z,18.10
2018-03-08T09:42:06.276Z,18.10
2018-03-08T09:44:32.512Z,18.10
2018-03-08T09:46:58.790Z,18.10
2018-03-08T09:49:25.058Z,18.10
2018-03-08T09:51:51.330Z,18.10
2018-03-08T09:54:17.600Z,18.10
2018-03-08T09:56:43.833Z,18.10
2018-03-08T09:59:10.370Z,18.10
2018-03-08T10:01:36.631Z,18.10
2018-03-08T10:04:02.868Z,18.10
2018-03-08T10:06:29.264Z,18.20
2018-03-08T10:08:56.274Z,18.20
2018-03-08T10:11:22.497Z,18.10
2018-03-08T10:13:48.715Z,18.20
2018-03-08T10:16:14.940Z,18.20
2018-03-08T10:18:41.161Z,18.20
2018-03-08T10:21:07.922Z,18.20
2018-03-08T10:23:34.130Z,18.20
2018-03-08T10:26:00.370Z,18.20
2018-03-08T10:28:27.305Z,18.20
2018-03-08T10:30:53.535Z,18.20
2018-03-08T10:33:19.751Z,18.10
2018-03-08T10:35:46.786Z,18.20
2018-03-08T10:38:13.034Z,18.20
2018-03-08T10:43:05.615Z,18.20
2018-03-08T10:45:31.838Z,18.20
2018-03-08T10:47:58.098Z,18.20
2018-03-08T10:50:24.731Z,18.20
2018-03-08T10:52:50.940Z,18.20
2018-03-08T10:55:17.433Z,18.20
2018-03-08T10:57:43.509Z,18.20
2018-03-08T11:00:09.760Z,18.20
2018-03-08T11:02:36.001Z,18.20
2018-03-08T11:05:02.245Z,18.20
2018-03-08T11:07:28.481Z,18.20
2018-03-08T11:09:54.732Z,18.20
2018-03-08T11:12:21.693Z,18.20
2018-03-08T11:14:48.143Z,18.20
2018-03-08T11:17:14.361Z,18.20
2018-03-08T11:19:40.588Z,18.20
2018-03-08T11:22:07.615Z,18.20
2018-03-08T11:24:33.862Z,18.20
2018-03-08T11:27:00.091Z,18.20
2018-03-08T11:29:26.328Z,18.20
2018-03-08T11:31:52.550Z,18.20
2018-03-08T11:34:18.830Z,18.20
2018-03-08T11:36:45.067Z,18.20
2018-03-08T11:39:11.310Z,18.20
2018-03-08T11:41:37.528Z,18.20
2018-03-08T11:44:04.131Z,18.20
2018-03-08T11:46:30.408Z,18.20
2018-03-08T11:48:56.652Z,18.20
2018-03-08T11:51:22.914Z,18.20
2018-03-08T11:53:49.142Z,18.20
2018-03-08T11:56:15.394Z,18.20
2018-03-08T11:58:42.374Z,18.20
2018-03-08T12:01:08.606Z,18.20
2018-03-08T12:03:35.513Z,18.20
2018-03-08T12:06:01.738Z,18.20
2018-03-08T12:08:27.952Z,18.20
2018-03-08T12:10:54.214Z,18.20
2018-03-08T12:13:20.434Z,18.20
2018-03-08T12:15:46.652Z,18.20
2018-03-08T12:18:12.891Z,18.20
2018-03-08T12:20:39.111Z,18.20
2018-03-08T12:23:06.977Z,18.20
2018-03-08T12:25:33.222Z,18.20
2018-03-08T12:28:00.225Z,18.20
2018-03-08T12:30:26.455Z,18.20
2018-03-08T12:32:52.665Z,18.20
2018-03-08T12:35:19.690Z,18.20
2018-03-08T12:37:45.931Z,18.20
2018-03-08T12:40:12.286Z,18.20
2018-03-08T12:42:38.507Z,18.20
2018-03-08T12:45:05.019Z,18.20
2018-03-08T12:47:31.279Z,18.20
2018-03-08T12:49:57.515Z,18.20
2018-03-08T12:52:23.779Z,18.20
2018-03-08T12:54:50.618Z,18.20
2018-03-08T12:57:16.900Z,18.20
2018-03-08T12:59:43.162Z,18.20
2018-03-08T13:02:09.379Z,18.20
2018-03-08T13:04:35.614Z,18.20
2018-03-08T13:07:01.851Z,18.20
2018-03-08T13:09:28.090Z,18.20
2018-03-08T13:11:54.406Z,18.20
2018-03-08T13:14:20.633Z,18.20
2018-03-08T13:16:46.880Z,18.20
2018-03-08T13:19:13.114Z,18.20
2018-03-08T13:21:39.343Z,18.20
2018-03-08T13:24:05.612Z,18.20
2018-03-08T13:26:32.594Z,18.30
2018-03-08T13:28:58.839Z,18.30
2018-03-08T13:31:25.078Z,18.30
2018-03-08T13:33:51.311Z,18.30
2018-03-08T13:36:17.586Z,18.30
2018-03-08T13:38:43.818Z,18.30
2018-03-08T13:41:10.043Z,18.30
2018-03-08T13:43:36.307Z,18.30
2018-03-08T13:46:02.583Z,18.30
2018-03-08T13:48:28.901Z,18.30
2018-03-08T13:50:55.120Z,18.30
2018-03-08T13:53:21.353Z,18.30
2018-03-08T13:55:48.335Z,18.30
2018-03-08T13:58:14.575Z,18.30
2018-03-08T14:00:40.976Z,18.30
2018-03-08T14:03:07.993Z,18.30
2018-03-08T14:05:34.230Z,18.40
2018-03-08T14:08:00.455Z,18.40
2018-03-08T14:10:26.693Z,18.40
2018-03-08T14:12:52.948Z,18.40
2018-03-08T14:15:19.184Z,18.40
2018-03-08T14:17:45.414Z,18.40
2018-03-08T14:20:11.660Z,18.40
2018-03-08T14:22:38.511Z,18.40
2018-03-08T14:25:04.768Z,18.40
2018-03-08T14:27:31.007Z,18.40
2018-03-08T14:29:57.223Z,18.40
2018-03-08T14:32:23.439Z,18.40
2018-03-08T14:34:49.675Z,18.40
2018-03-08T14:37:15.983Z,18.40
2018-03-08T14:39:42.229Z,18.40
2018-03-08T14:42:08.460Z,18.40
2018-03-08T14:44:34.706Z,18.40
2018-03-08T14:47:01.123Z,18.40
2018-03-08T14:49:27.387Z,18.40
2018-03-08T14:51:53.634Z,18.40
2018-03-08T14:54:19.883Z,18.40
2018-03-08T14:56:46.888Z,18.40
2018-03-08T14:59:13.129Z,18.40
2018-03-08T15:01:39.410Z,18.40
2018-03-08T15:04:05.937Z,18.30
2018-03-08T15:06:33.251Z,18.30
2018-03-08T15:08:59.510Z,18.40
2018-03-08T15:11:25.731Z,18.30
2018-03-08T15:13:51.984Z,18.30
2018-03-08T15:16:18.241Z,18.30
2018-03-08T15:18:44.517Z,18.30
2018-03-08T15:21:10.749Z,18.30
2018-03-08T15:23:36.959Z,18.30
2018-03-08T15:26:03.219Z,18.30
2018-03-08T15:28:29.462Z,18.30
2018-03-08T15:30:55.698Z,18.30
2018-03-08T15:33:21.939Z,18.30
2018-03-08T15:35:48.186Z,18.30
2018-03-08T15:38:14.443Z,18.30
2018-03-08T15:40:40.673Z,18.30
2018-03-08T15:43:06.893Z,18.30
2018-03-08T15:45:33.116Z,18.30
2018-03-08T15:47:59.336Z,18.30
2018-03-08T15:50:25.607Z,18.30
2018-03-08T15:52:51.827Z,18.30
2018-03-08T15:55:18.071Z,18.30
2018-03-08T15:57:44.306Z,18.30
2018-03-08T16:00:10.555Z,18.30
2018-03-08T16:02:36.825Z,18.30
2018-03-08T16:05:03.082Z,18.30
2018-03-08T16:07:29.318Z,18.30
2018-03-08T16:09:55.553Z,18.30
2018-03-08T16:12:21.779Z,18.30
2018-03-08T16:14:48.036Z,18.30
2018-03-08T16:17:14.294Z,18.30
2018-03-08T16:19:40.531Z,18.30
2018-03-08T16:22:06.752Z,18.30
2018-03-08T16:24:32.972Z,18.30
2018-03-08T16:26:59.231Z,18.30
2018-03-08T16:29:25.491Z,18.30
2018-03-08T16:31:52.500Z,18.40
2018-03-08T16:34:19.089Z,18.30
2018-03-08T16:36:45.319Z,18.40
2018-03-08T16:39:11.590Z,18.40
2018-03-08T16:41:38.716Z,18.40
2018-03-08T16:44:04.935Z,18.40
2018-03-08T16:46:31.442Z,18.40
2018-03-08T16:48:57.687Z,18.40
2018-03-08T16:51:24.174Z,18.40
2018-03-08T16:53:50.432Z,18.40
2018-03-08T16:56:17.045Z,18.40
2018-03-08T16:58:43.272Z,18.40
2018-03-08T17:01:09.523Z,18.40
2018-03-08T17:03:35.779Z,18.30
2018-03-08T17:06:02.020Z,18.30
2018-03-08T17:08:28.239Z,18.40
2018-03-08T17:10:54.465Z,18.30
2018-03-08T17:13:20.706Z,18.30
2018-03-08T17:15:47.022Z,18.30
2018-03-08T17:18:13.262Z,18.30
2018-03-08T17:20:39.518Z,18.30
2018-03-08T17:23:05.805Z,18.30
2018-03-08T17:25:32.025Z,18.30
2018-03-08T17:27:58.296Z,18.30
2018-03-08T17:30:24.553Z,18.30
2018-03-08T17:32:50.779Z,18.30
2018-03-08T17:35:16.999Z,18.30
2018-03-08T17:37:43.223Z,18.30
2018-03-08T17:40:09.506Z,18.30
2018-03-08T17:42:35.746Z,18.30
2018-03-08T17:45:01.963Z,18.20
2018-03-08T17:47:28.185Z,18.20
2018-03-08T17:49:54.419Z,18.20
2018-03-08T17:52:20.698Z,18.20
2018-03-08T17:54:46.928Z,18.20
2018-03-08T17:57:13.142Z,18.20
2018-03-08T17:59:39.382Z,18.20
2018-03-08T18:02:05.606Z,18.20
2018-03-08T18:04:31.880Z,18.20
2018-03-08T18:06:58.162Z,18.20
2018-03-08T18:09:24.401Z,18.20
2018-03-08T18:11:50.687Z,18.20
2018-03-08T18:14:16.926Z,18.20
2018-03-08T18:16:43.206Z,18.20
2018-03-08T18:19:09.455Z,18.20
2018-03-08T18:21:35.874Z,18.20
2018-03-08T18:24:02.111Z,18.20
2018-03-08T18:26:28.343Z,18.20
2018-03-08T18:28:54.682Z,18.30
2018-03-08T18:31:20.926Z,18.30
2018-03-08T18:33:47.148Z,18.30
2018-03-08T18:36:13.386Z,18.30
2018-03-08T18:38:39.630Z,18.30
2018-03-08T18:41:06.194Z,18.40
2018-03-08T18:43:32.416Z,18.40
2018-03-08T18:45:58.686Z,18.40
2018-03-08T18:48:24.940Z,18.50
2018-03-08T18:50:51.172Z,18.50
2018-03-08T18:53:17.454Z,18.50
2018-03-08T18:55:43.675Z,18.50
2018-03-08T18:58:09.907Z,18.60
2018-03-08T19:00:36.128Z,18.60
2018-03-08T19:03:02.373Z,18.60
2018-03-08T19:05:28.588Z,18.70
2018-03-08T19:07:54.827Z,18.70
2018-03-08T19:10:21.999Z,18.80
2018-03-08T19:12:48.230Z,18.80
2018-03-08T19:15:15.210Z,18.80
2018-03-08T19:17:41.446Z,18.80
2018-03-08T19:20:07.668Z,18.80
2018-03-08T19:22:33.916Z,18.80
2018-03-08T19:25:00.458Z,18.90
2018-03-08T19:27:26.697Z,18.90
2018-03-08T19:29:52.951Z,18.90
2018-03-08T19:32:19.332Z,18.90
2018-03-08T19:34:45.552Z,18.90
2018-03-08T19:37:11.847Z,19.00
2018-03-08T19:39:38.487Z,19.00
2018-03-08T19:42:04.731Z,19.00
2018-03-08T19:44:30.986Z,19.00
2018-03-08T19:46:57.228Z,19.00
2018-03-08T19:49:24.235Z,19.10
2018-03-08T19:51:50.505Z,19.00
2018-03-08T19:54:17.244Z,19.10
2018-03-08T19:56:43.500Z,19.10
2018-03-08T19:59:09.726Z,19.10
2018-03-08T20:01:36.731Z,19.10
2018-03-08T20:04:02.991Z,19.10
2018-03-08T20:06:29.503Z,19.20
2018-03-08T20:08:56.225Z,19.20
2018-03-08T20:11:22.664Z,19.20
2018-03-08T20:13:48.910Z,19.20
2018-03-08T20:16:15.440Z,19.20
2018-03-08T20:18:41.688Z,19.30
2018-03-08T20:21:08.687Z,19.30
2018-03-08T20:23:34.912Z,19.30
2018-03-08T20:26:01.167Z,19.30
2018-03-08T20:28:27.534Z,19.30
2018-03-08T20:30:53.772Z,19.30
2018-03-08T20:33:20.106Z,19.30
2018-03-08T20:35:46.362Z,19.30
2018-03-08T20:38:12.606Z,19.30
2018-03-08T20:40:39.010Z,19.30
2018-03-08T20:43:05.298Z,19.30
2018-03-08T20:45:31.524Z,19.30
2018-03-08T20:47:57.821Z,19.40
2018-03-08T20:50:24.055Z,19.40
2018-03-08T20:52:50.310Z,19.40
2018-03-08T20:55:17.154Z,19.40
2018-03-08T20:57:43.384Z,19.40
2018-03-08T21:00:09.607Z,19.40
2018-03-08T21:02:36.046Z,19.40
2018-03-08T21:05:02.492Z,19.40
2018-03-08T21:07:28.702Z,19.40
2018-03-08T21:09:54.938Z,19.40
2018-03-08T21:12:21.430Z,19.40
2018-03-08T21:14:47.667Z,19.40
2018-03-08T21:17:14.006Z,19.40
2018-03-08T21:19:40.231Z,19.50
2018-03-08T21:22:06.500Z,19.50
2018-03-08T21:24:32.721Z,19.50
2018-03-08T21:26:58.999Z,19.50
2018-03-08T21:29:26.010Z,19.40
2018-03-08T21:31:52.255Z,19.40
2018-03-08T21:34:18.483Z,19.40
2018-03-08T21:36:44.723Z,19.40
2018-03-08T21:39:11.820Z,19.30
2018-03-08T21:41:38.090Z,19.30
2018-03-08T21:44:04.613Z,19.10
2018-03-08T21:46:30.867Z,18.80
2018-03-08T21:48:57.087Z,18.60
2018-03-08T21:51:23.306Z,18.40
2018-03-08T21:53:49.578Z,18.30
2018-03-08T21:56:15.823Z,18.60
2018-03-08T21:58:42.065Z,18.70
2018-03-08T22:01:09.059Z,18.90
2018-03-08T22:03:35.288Z,18.90
2018-03-08T22:06:01.546Z,18.90
2018-03-08T22:08:27.795Z,18.90
2018-03-08T22:10:54.192Z,19.00
2018-03-08T22:13:20.415Z,19.00
2018-03-08T22:15:46.644Z,19.00
2018-03-08T22:18:12.898Z,19.00
2018-03-08T22:20:39.139Z,18.90
2018-03-08T22:23:06.189Z,19.00
2018-03-08T22:25:32.767Z,18.90
2018-03-08T22:27:58.983Z,18.90
2018-03-08T22:30:25.263Z,18.90
2018-03-08T22:32:51.486Z,18.90
2018-03-08T22:35:17.707Z,18.90
2018-03-08T22:37:44.208Z,18.90
2018-03-08T22:40:10.458Z,18.90
2018-03-08T22:42:36.716Z,18.90
2018-03-08T22:45:02.950Z,18.90
2018-03-08T22:47:29.172Z,18.90
2018-03-08T22:49:55.414Z,18.90
2018-03-08T22:52:21.654Z,18.90
2018-03-08T22:54:47.928Z,18.90
2018-03-08T22:57:14.912Z,18.90
2018-03-08T22:59:41.135Z,18.90
2018-03-08T23:02:08.212Z,18.90
2018-03-08T23:04:34.441Z,18.90
2018-03-08T23:07:00.685Z,18.80
2018-03-08T23:09:27.644Z,18.90
2018-03-08T23:11:53.925Z,18.80
2018-03-08T23:14:20.911Z,18.80
2018-03-08T23:16:47.135Z,18.80
2018-03-08T23:19:13.574Z,18.80
2018-03-08T23:21:39.794Z,18.80
2018-03-08T23:24:06.058Z,18.80
2018-03-08T23:26:32.291Z,18.80
2018-03-08T23:28:58.519Z,18.80
